createdAt,value
2023-03-27T00:00:20.376Z,97104.41
2023-03-27T00:03:25.487Z,97111.69
2023-03-27T00:06:28.410Z,97120.28
2023-03-27T00:09:32.058Z,97122.22
2023-03-27T00:12:36.368Z,97120.06
2023-03-27T00:15:40.927Z,97137.16
2023-03-27T00:18:45.198Z,97136.78
2023-03-27T00:21:48.732Z,97147.69
2023-03-27T00:24:51.935Z,97153.31
2023-03-27T00:27:58.470Z,97153.81
2023-03-27T00:31:01.741Z,97156.44
2023-03-27T00:34:05.081Z,97162.28
2023-03-27T00:37:07.965Z,97172.97
2023-03-27T00:40:15.592Z,97187.19
2023-03-27T00:43:26.258Z,97197.28
2023-03-27T00:46:39.151Z,97207.78
2023-03-27T00:49:41.922Z,97205.31
2023-03-27T00:52:48.439Z,97214.13
2023-03-27T00:55:54.205Z,97215.19
2023-03-27T00:59:02.168Z,97221.09
2023-03-27T01:02:06.147Z,97225.41
2023-03-27T01:05:11.444Z,97232.91
2023-03-27T01:08:15.531Z,97250.03
2023-03-27T01:11:31.198Z,97242.59
2023-03-27T01:14:41.550Z,97252.53
2023-03-27T01:17:59.858Z,97261.13
2023-03-27T01:21:47.837Z,97262.00
2023-03-27T01:25:22.612Z,97270.00
2023-03-27T01:28:42.621Z,97268.66
2023-03-27T01:32:02.464Z,97275.34
2023-03-27T01:35:30.022Z,97288.97
2023-03-27T01:39:08.801Z,97296.16
2023-03-27T01:42:21.446Z,97301.22
2023-03-27T01:45:30.096Z,97301.50
2023-03-27T01:48:40.949Z,97311.66
2023-03-27T01:51:50.019Z,97323.38
2023-03-27T01:54:58.378Z,97322.34
2023-03-27T01:58:07.913Z,97327.75
2023-03-27T02:01:12.451Z,97348.81
2023-03-27T02:04:19.621Z,97348.31
2023-03-27T02:07:28.100Z,97364.09
2023-03-27T02:10:37.637Z,97375.59
2023-03-27T02:13:46.033Z,97382.00
2023-03-27T02:16:54.291Z,97400.16
2023-03-27T02:20:02.506Z,97399.66
2023-03-27T02:23:06.579Z,97415.41
2023-03-27T02:26:12.497Z,97418.88
2023-03-27T02:29:32.524Z,97425.81
2023-03-27T02:32:46.271Z,97442.06
2023-03-27T02:35:58.386Z,97437.00
2023-03-27T02:39:08.764Z,97462.84
2023-03-27T02:42:19.003Z,97467.63
2023-03-27T02:45:29.700Z,97478.81
2023-03-27T02:48:35.486Z,97482.53
2023-03-27T02:51:43.657Z,97478.00
2023-03-27T02:54:53.443Z,97492.91
2023-03-27T02:58:00.700Z,97503.28
2023-03-27T03:01:09.297Z,97502.75
2023-03-27T03:04:18.723Z,97515.28
2023-03-27T03:07:22.669Z,97527.25
2023-03-27T03:10:26.007Z,97528.59
2023-03-27T03:13:28.756Z,97541.38
2023-03-27T03:16:33.418Z,97551.72
2023-03-27T03:19:37.116Z,97556.78
2023-03-27T03:22:40.256Z,97568.78
2023-03-27T03:25:44.707Z,97576.72
2023-03-27T03:29:00.050Z,97580.19
2023-03-27T03:32:06.703Z,97582.38
2023-03-27T03:35:10.039Z,97591.69
2023-03-27T03:38:12.833Z,97601.28
2023-03-27T03:41:15.690Z,97605.25
2023-03-27T03:44:18.622Z,97628.41
2023-03-27T03:47:23.511Z,97631.81
2023-03-27T03:50:26.205Z,97638.97
2023-03-27T03:53:28.938Z,97652.25
2023-03-27T03:56:31.782Z,97664.81
2023-03-27T03:59:34.627Z,97681.03
2023-03-27T04:02:40.710Z,97678.91
2023-03-27T04:05:43.897Z,97695.63
2023-03-27T04:08:46.660Z,97698.00
2023-03-27T04:11:49.339Z,97713.06
2023-03-27T04:14:52.168Z,97717.28
2023-03-27T04:17:57.765Z,97723.47
2023-03-27T04:21:00.696Z,97736.94
2023-03-27T04:24:03.413Z,97746.00
2023-03-27T04:27:07.359Z,97764.03
2023-03-27T04:30:14.083Z,97763.25
2023-03-27T04:33:19.361Z,97762.38
2023-03-27T04:36:22.611Z,97782.84
2023-03-27T04:39:26.462Z,97796.16
2023-03-27T04:42:29.279Z,97801.97
2023-03-27T04:45:32.540Z,97807.25
2023-03-27T04:48:39.069Z,97821.16
2023-03-27T04:51:42.873Z,97834.94
2023-03-27T04:54:46.601Z,97834.94
2023-03-27T04:57:49.262Z,97840.38
2023-03-27T05:00:55.678Z,97856.00
2023-03-27T05:04:02.477Z,97853.22
2023-03-27T05:07:05.697Z,97866.84
2023-03-27T05:10:09.733Z,97879.97
2023-03-27T05:13:13.033Z,97890.09
2023-03-27T05:16:17.594Z,97893.41
2023-03-27T05:19:22.194Z,97903.06
2023-03-27T05:22:25.139Z,97917.31
2023-03-27T05:25:28.584Z,97925.78
2023-03-27T05:28:31.651Z,97937.53
2023-03-27T05:31:34.513Z,97941.72
2023-03-27T05:34:38.965Z,97956.53
2023-03-27T05:37:41.677Z,97952.72
2023-03-27T05:40:44.821Z,97952.28
2023-03-27T05:43:49.032Z,97963.09
2023-03-27T05:46:52.963Z,97972.13
2023-03-27T05:49:57.117Z,97975.59
2023-03-27T05:53:02.458Z,97984.84
2023-03-27T05:56:05.738Z,97998.44
2023-03-27T05:59:08.553Z,98000.69
2023-03-27T06:02:11.985Z,98003.34
2023-03-27T06:05:16.587Z,98010.84
2023-03-27T06:08:19.414Z,98011.47
2023-03-27T06:11:22.240Z,98017.28
2023-03-27T06:14:25.044Z,98022.50
2023-03-27T06:17:28.034Z,98030.06
2023-03-27T06:20:32.877Z,98040.13
2023-03-27T06:23:35.940Z,98054.22
2023-03-27T06:26:39.257Z,98055.59
2023-03-27T06:29:41.985Z,98063.00
2023-03-27T06:32:46.322Z,98078.38
2023-03-27T06:35:52.948Z,98084.00
2023-03-27T06:38:56.694Z,98096.03
2023-03-27T06:41:59.831Z,98090.97
2023-03-27T06:45:02.951Z,98088.19
2023-03-27T06:48:17.277Z,98102.09
2023-03-27T06:51:26.885Z,98107.88
2023-03-27T06:54:29.945Z,98119.50
2023-03-27T06:57:32.801Z,98121.13
2023-03-27T07:00:39.124Z,98146.91
2023-03-27T07:03:42.119Z,98150.38
2023-03-27T07:06:48.867Z,98153.91
2023-03-27T07:09:52.670Z,98153.91
2023-03-27T07:12:55.605Z,98166.00
2023-03-27T07:15:58.571Z,98168.41
2023-03-27T07:19:02.559Z,98179.31
2023-03-27T07:22:07.124Z,98185.31
2023-03-27T07:25:12.127Z,98186.63
2023-03-27T07:28:16.749Z,98184.56
2023-03-27T07:31:33.124Z,98189.13
2023-03-27T07:34:39.824Z,98191.50
2023-03-27T07:37:44.811Z,98201.56
2023-03-27T07:40:47.701Z,98197.88
2023-03-27T07:43:50.640Z,98205.28
2023-03-27T07:46:53.514Z,98211.47
2023-03-27T07:49:56.353Z,98233.50
2023-03-27T07:53:00.913Z,98230.25
2023-03-27T07:56:03.745Z,98241.69
2023-03-27T07:59:06.726Z,98238.19
2023-03-27T08:02:11.018Z,98246.03
2023-03-27T08:05:13.888Z,98266.75
2023-03-27T08:08:17.946Z,98269.84
2023-03-27T08:11:30.375Z,98273.78
2023-03-27T08:14:33.755Z,98293.63
2023-03-27T08:17:36.932Z,98293.78
2023-03-27T08:20:39.956Z,98288.94
2023-03-27T08:23:44.109Z,98298.22
2023-03-27T08:26:47.117Z,98296.63
2023-03-27T08:29:49.823Z,98295.09
2023-03-27T08:32:52.906Z,98295.31
2023-03-27T08:35:57.723Z,98305.47
2023-03-27T08:39:02.758Z,98299.00
2023-03-27T08:42:09.397Z,98294.41
2023-03-27T08:45:20.963Z,98312.84
2023-03-27T08:48:28.228Z,98314.81
2023-03-27T08:51:36.078Z,98321.34
2023-03-27T08:54:41.036Z,98327.03
2023-03-27T08:57:43.921Z,98340.56
2023-03-27T09:00:51.942Z,98334.97
2023-03-27T09:04:01.668Z,98338.91
2023-03-27T09:07:11.049Z,98354.81
2023-03-27T09:10:23.622Z,98346.06
2023-03-27T09:13:31.955Z,98357.41
2023-03-27T09:16:39.665Z,98351.91
2023-03-27T09:19:48.131Z,98362.19
2023-03-27T09:22:54.488Z,98361.41
2023-03-27T09:26:01.840Z,98363.97
2023-03-27T09:29:12.465Z,98366.84
2023-03-27T09:32:23.729Z,98374.66
2023-03-27T09:35:27.382Z,98366.97
2023-03-27T09:38:36.097Z,98372.63
2023-03-27T09:41:43.825Z,98382.56
2023-03-27T09:44:50.810Z,98384.72
2023-03-27T09:47:59.710Z,98391.19
2023-03-27T09:51:05.297Z,98389.34
2023-03-27T09:54:08.769Z,98391.31
2023-03-27T09:57:13.406Z,98383.56
2023-03-27T10:00:29.309Z,98399.34
2023-03-27T10:03:38.959Z,98400.34
2023-03-27T10:06:45.809Z,98399.88
2023-03-27T10:10:05.645Z,98401.72
2023-03-27T10:13:14.124Z,98415.88
2023-03-27T10:16:18.773Z,98409.00
2023-03-27T10:19:25.225Z,98410.09
2023-03-27T10:22:32.283Z,98402.31
2023-03-27T10:25:38.009Z,98407.97
2023-03-27T10:28:45.420Z,98420.03
2023-03-27T10:31:53.121Z,98422.38
2023-03-27T10:34:58.636Z,98423.91
2023-03-27T10:38:03.675Z,98416.75
2023-03-27T10:41:14.296Z,98424.56
2023-03-27T10:44:21.494Z,98426.72
2023-03-27T10:47:26.463Z,98416.75
2023-03-27T10:50:33.697Z,98428.28
2023-03-27T10:53:44.491Z,98431.53
2023-03-27T10:56:58.575Z,98437.44
2023-03-27T11:00:11.912Z,98441.66
2023-03-27T11:03:28.075Z,98424.03
2023-03-27T11:06:34.815Z,98443.13
2023-03-27T11:09:43.736Z,98445.22
2023-03-27T11:12:54.259Z,98431.06
2023-03-27T11:16:08.709Z,98443.88
2023-03-27T11:19:26.106Z,98451.13
2023-03-27T11:22:34.147Z,98453.03
2023-03-27T11:25:43.340Z,98464.88
2023-03-27T11:29:02.003Z,98469.56
2023-03-27T11:32:17.157Z,98485.75
2023-03-27T11:35:24.683Z,98480.63
2023-03-27T11:38:32.546Z,98475.59
2023-03-27T11:41:35.370Z,98477.03
2023-03-27T11:44:38.298Z,98471.00
2023-03-27T11:47:54.211Z,98463.22
2023-03-27T11:51:02.997Z,98467.22
2023-03-27T11:54:23.293Z,98486.03
2023-03-27T11:57:27.781Z,98479.88
2023-03-27T12:00:36.294Z,98476.09
2023-03-27T12:04:08.126Z,98469.84
2023-03-27T12:07:34.140Z,98456.06
2023-03-27T12:10:42.437Z,98469.41
2023-03-27T12:14:17.618Z,98481.13
2023-03-27T12:17:51.320Z,98476.34
2023-03-27T12:21:07.073Z,98471.53
2023-03-27T12:24:22.576Z,98479.88
2023-03-27T12:27:37.473Z,98471.00
2023-03-27T12:30:53.228Z,98465.06
2023-03-27T12:34:02.798Z,98484.25
2023-03-27T12:37:10.268Z,98489.25
2023-03-27T12:40:29.006Z,98478.59
2023-03-27T12:43:33.750Z,98488.09
2023-03-27T12:46:39.399Z,98489.47
2023-03-27T12:49:48.215Z,98492.41
2023-03-27T12:52:53.413Z,98490.25
2023-03-27T12:56:26.746Z,98485.63
2023-03-27T12:59:33.528Z,98492.06
2023-03-27T13:02:57.774Z,98492.66
2023-03-27T13:06:26.937Z,98496.88
2023-03-27T13:09:47.092Z,98495.91
2023-03-27T13:13:24.637Z,98493.34
2023-03-27T13:16:40.282Z,98512.91
2023-03-27T13:19:54.202Z,98527.22
2023-03-27T13:23:16.360Z,98521.38
2023-03-27T13:26:40.465Z,98537.38
2023-03-27T13:29:43.304Z,98546.94
2023-03-27T13:33:10.973Z,98552.84
2023-03-27T13:36:19.333Z,98569.84
2023-03-27T13:39:24.742Z,98571.47
2023-03-27T13:42:35.894Z,98579.34
2023-03-27T13:45:47.017Z,98591.03
2023-03-27T13:49:18.807Z,98605.72
2023-03-27T13:52:54.430Z,98592.91
2023-03-27T13:56:23.613Z,98585.09
2023-03-27T14:00:02.075Z,98594.47
2023-03-27T14:03:52.936Z,98580.44
2023-03-27T14:07:45.944Z,98584.06
2023-03-27T14:11:09.742Z,98578.13
2023-03-27T14:14:27.412Z,98579.59
2023-03-27T14:17:42.731Z,98573.81
2023-03-27T14:20:47.609Z,98574.03
2023-03-27T14:23:58.848Z,98576.34
2023-03-27T14:27:02.980Z,98582.44
2023-03-27T14:30:15.543Z,98588.56
2023-03-27T14:33:20.228Z,98583.78
2023-03-27T14:36:25.979Z,98585.91
2023-03-27T14:39:31.404Z,98588.28
2023-03-27T14:42:34.644Z,98586.84
2023-03-27T14:45:40.680Z,98593.72
2023-03-27T14:48:46.355Z,98588.91
2023-03-27T14:51:50.515Z,98596.50
2023-03-27T14:54:57.698Z,98595.22
2023-03-27T14:58:11.388Z,98598.94
2023-03-27T15:01:17.955Z,98595.13
2023-03-27T15:04:21.465Z,98596.16
2023-03-27T15:07:28.497Z,98599.28
2023-03-27T15:10:32.970Z,98601.38
2023-03-27T15:13:36.785Z,98603.44
2023-03-27T15:16:39.928Z,98601.03
2023-03-27T15:19:48.484Z,98605.66
2023-03-27T15:22:55.426Z,98599.84
2023-03-27T15:26:04.738Z,98602.13
2023-03-27T15:29:13.942Z,98607.91
2023-03-27T15:32:21.984Z,98626.66
2023-03-27T15:35:31.026Z,98621.16
2023-03-27T15:38:36.992Z,98623.22
2023-03-27T15:41:44.003Z,98634.59
2023-03-27T15:44:46.671Z,98621.81
2023-03-27T15:48:00.919Z,98631.91
2023-03-27T15:51:06.525Z,98638.69
2023-03-27T15:54:25.369Z,98631.47
2023-03-27T15:57:30.472Z,98632.41
2023-03-27T16:00:33.180Z,98640.09
2023-03-27T16:03:36.584Z,98636.00
2023-03-27T16:06:41.867Z,98630.19
2023-03-27T16:09:51.893Z,98628.59
2023-03-27T16:13:01.933Z,98629.34
2023-03-27T16:16:07.648Z,98629.31
2023-03-27T16:19:13.542Z,98629.03
2023-03-27T16:22:20.313Z,98630.28
2023-03-27T16:25:22.959Z,98642.84
2023-03-27T16:28:29.652Z,98644.38
2023-03-27T16:31:32.555Z,98642.91
2023-03-27T16:34:35.436Z,98648.81
2023-03-27T16:37:38.165Z,98649.34
2023-03-27T16:40:41.272Z,98637.13
2023-03-27T16:43:46.329Z,98648.28
2023-03-27T16:46:49.188Z,98653.03
2023-03-27T16:50:07.900Z,98661.59
2023-03-27T16:53:13.832Z,98666.19
2023-03-27T16:56:17.054Z,98676.47
2023-03-27T16:59:21.258Z,98675.53
2023-03-27T17:02:25.469Z,98663.47
2023-03-27T17:05:33.822Z,98658.66
2023-03-27T17:08:37.674Z,98658.00
2023-03-27T17:11:40.620Z,98662.66
2023-03-27T17:14:44.609Z,98665.22
2023-03-27T17:17:47.319Z,98663.13
2023-03-27T17:20:49.949Z,98667.56
2023-03-27T17:23:54.332Z,98667.78
2023-03-27T17:26:56.980Z,98669.63
2023-03-27T17:30:01.344Z,98673.00
2023-03-27T17:33:05.011Z,98668.16
2023-03-27T17:36:12.411Z,98668.97
2023-03-27T17:39:15.242Z,98675.50
2023-03-27T17:42:18.023Z,98682.34
2023-03-27T17:45:24.278Z,98691.03
2023-03-27T17:48:27.807Z,98699.03
2023-03-27T17:51:30.896Z,98699.03
2023-03-27T17:54:35.050Z,98708.38
2023-03-27T17:57:39.535Z,98713.72
2023-03-27T18:00:44.212Z,98712.78
2023-03-27T18:03:47.760Z,98715.47
2023-03-27T18:06:50.654Z,98721.69
2023-03-27T18:09:53.490Z,98727.50
2023-03-27T18:12:56.626Z,98735.47
2023-03-27T18:16:02.203Z,98730.41
2023-03-27T18:19:06.460Z,98738.81
2023-03-27T18:22:09.276Z,98742.59
2023-03-27T18:25:12.176Z,98741.56
2023-03-27T18:28:14.974Z,98749.38
2023-03-27T18:31:20.126Z,98753.66
2023-03-27T18:34:22.915Z,98757.22
2023-03-27T18:37:25.780Z,98763.31
2023-03-27T18:40:28.483Z,98773.56
2023-03-27T18:43:31.906Z,98758.34
2023-03-27T18:46:36.711Z,98757.00
2023-03-27T18:49:39.935Z,98767.78
2023-03-27T18:52:42.712Z,98775.84
2023-03-27T18:55:49.010Z,98774.69
2023-03-27T18:58:51.689Z,98775.00
2023-03-27T19:01:55.720Z,98792.97
2023-03-27T19:04:58.387Z,98793.88
2023-03-27T19:08:01.062Z,98800.44
2023-03-27T19:11:03.732Z,98825.31
2023-03-27T19:14:06.709Z,98819.13
2023-03-27T19:17:14.522Z,98824.38
2023-03-27T19:20:17.580Z,98823.13
2023-03-27T19:23:20.250Z,98820.22
2023-03-27T19:26:22.937Z,98811.50
2023-03-27T19:29:25.721Z,98815.59
2023-03-27T19:32:29.812Z,98817.66
2023-03-27T19:35:32.556Z,98826.56
2023-03-27T19:38:37.449Z,98817.81
2023-03-27T19:41:41.387Z,98822.63
2023-03-27T19:44:44.017Z,98829.88
2023-03-27T19:47:48.150Z,98833.22
2023-03-27T19:50:51.775Z,98847.06
2023-03-27T19:53:55.505Z,98846.78
2023-03-27T19:56:58.208Z,98847.38
2023-03-27T20:00:00.888Z,98847.63
2023-03-27T20:03:05.517Z,98844.97
2023-03-27T20:06:13.270Z,98847.88
2023-03-27T20:09:16.864Z,98852.13
2023-03-27T20:12:19.762Z,98850.78
2023-03-27T20:15:22.756Z,98856.50
2023-03-27T20:18:32.481Z,98849.94
2023-03-27T20:21:37.536Z,98864.44
2023-03-27T20:24:40.601Z,98865.47
2023-03-27T20:27:43.332Z,98872.69
2023-03-27T20:30:46.201Z,98874.75
2023-03-27T20:33:52.345Z,98877.28
2023-03-27T20:36:58.830Z,98875.88
2023-03-27T20:40:06.282Z,98881.63
2023-03-27T20:43:09.523Z,98891.53
2023-03-27T20:46:14.041Z,98888.66
2023-03-27T20:52:29.765Z,98905.72
2023-03-27T20:55:34.639Z,98901.78
2023-03-27T20:58:42.215Z,98901.59
2023-03-27T21:01:45.191Z,98901.78
2023-03-27T21:04:49.403Z,98902.44
2023-03-27T21:07:52.599Z,98903.03
2023-03-27T21:10:55.534Z,98902.97
2023-03-27T21:13:58.237Z,98901.25
2023-03-27T21:17:01.016Z,98903.25
2023-03-27T21:20:06.019Z,98903.19
2023-03-27T21:23:08.770Z,98900.31
2023-03-27T21:26:11.396Z,98902.31
2023-03-27T21:29:15.368Z,98906.84
2023-03-27T21:32:18.071Z,98906.84
2023-03-27T21:35:22.874Z,98912.50
2023-03-27T21:38:25.584Z,98910.03
2023-03-27T21:41:28.333Z,98917.09
2023-03-27T21:44:31.181Z,98913.25
2023-03-27T21:47:46.701Z,98919.84
2023-03-27T21:50:51.580Z,98921.53
2023-03-27T21:53:54.321Z,98922.25
2023-03-27T21:56:57.019Z,98917.94
2023-03-27T21:59:59.755Z,98926.78
2023-03-27T22:03:02.951Z,98926.50
2023-03-27T22:06:12.220Z,98930.59
2023-03-27T22:09:16.793Z,98927.00
2023-03-27T22:12:19.532Z,98931.53
2023-03-27T22:15:22.552Z,98931.97
2023-03-27T22:18:25.525Z,98928.53
2023-03-27T22:21:30.974Z,98935.28
2023-03-27T22:24:33.625Z,98927.56
2023-03-27T22:27:36.836Z,98933.47
2023-03-27T22:30:39.477Z,98947.16
2023-03-27T22:33:42.187Z,98946.94
2023-03-27T22:36:46.404Z,98959.22
2023-03-27T22:39:49.033Z,98963.88
2023-03-27T22:42:51.724Z,98958.16
2023-03-27T22:45:54.394Z,98967.13
2023-03-27T22:48:58.318Z,98971.72
2023-03-27T22:52:02.368Z,98978.25
2023-03-27T22:55:05.772Z,98981.63
2023-03-27T22:58:08.449Z,98982.06
2023-03-27T23:01:11.582Z,98986.91
2023-03-27T23:04:14.571Z,98997.06
2023-03-27T23:07:18.642Z,98992.38
2023-03-27T23:10:21.360Z,98996.28
2023-03-27T23:13:24.115Z,98999.84
2023-03-27T23:16:27.223Z,99003.34
2023-03-27T23:19:30.013Z,99004.47
2023-03-27T23:22:34.029Z,99005.75
2023-03-27T23:25:36.658Z,99003.09
2023-03-27T23:28:41.315Z,99002.72
2023-03-27T23:31:44.030Z,99014.38
2023-03-27T23:34:46.711Z,99011.06
2023-03-27T23:37:50.727Z,99021.25
2023-03-27T23:40:57.537Z,99018.16
2023-03-27T23:44:00.144Z,99022.59
2023-03-27T23:47:03.083Z,99028.34
2023-03-27T23:50:06.570Z,99027.69
2023-03-27T23:53:11.322Z,99036.91
2023-03-27T23:56:14.180Z,99032.66
2023-03-27T23:59:16.824Z,99036.56
